sensor_id;sensor_type;location;lat;lon;timestamp;P1;durP1;ratioP1;P2;durP2;ratioP2
25905;SDS011;13713;52.552;13.204;2022-10-16T00:01:47;17.23;;;13.60;;
25905;SDS011;13713;52.552;13.204;2022-10-16T00:04:13;17.10;;;14.10;;
25905;SDS011;13713;52.552;13.204;2022-10-16T00:06:39;16.73;;;13.25;;
25905;SDS011;13713;52.552;13.204;2022-10-16T00:09:05;18.52;;;13.95;;
25905;SDS011;13713;52.552;13.204;2022-10-16T00:11:32;20.00;;;13.85;;
25905;SDS011;13713;52.552;13.204;2022-10-16T00:14:02;16.73;;;13.38;;
25905;SDS011;13713;52.552;13.204;2022-10-16T00:16:29;16.00;;;12.65;;
25905;SDS011;13713;52.552;13.204;2022-10-16T00:18:55;18.52;;;13.82;;
25905;SDS011;13713;52.552;13.204;2022-10-16T00:21:21;17.00;;;13.23;;
25905;SDS011;13713;52.552;13.204;2022-10-16T00:23:52;17.60;;;12.82;;
25905;SDS011;13713;52.552;13.204;2022-10-16T00:26:29;16.38;;;12.75;;
25905;SDS011;13713;52.552;13.204;2022-10-16T00:28:56;16.15;;;12.23;;
25905;SDS011;13713;52.552;13.204;2022-10-16T00:31:22;17.70;;;12.18;;
25905;SDS011;13713;52.552;13.204;2022-10-16T00:33:48;16.25;;;12.90;;
25905;SDS011;13713;52.552;13.204;2022-10-16T00:36:16;17.27;;;12.77;;
25905;SDS011;13713;52.552;13.204;2022-10-16T00:38:44;16.73;;;13.10;;
25905;SDS011;13713;52.552;13.204;2022-10-16T00:41:11;15.73;;;12.35;;
25905;SDS011;13713;52.552;13.204;2022-10-16T00:46:14;16.35;;;12.88;;
25905;SDS011;13713;52.552;13.204;2022-10-16T00:48:40;16.05;;;12.05;;
25905;SDS011;13713;52.552;13.204;2022-10-16T00:51:10;16.77;;;12.45;;
25905;SDS011;13713;52.552;13.204;2022-10-16T00:53:36;17.35;;;12.05;;
25905;SDS011;13713;52.552;13.204;2022-10-16T00:56:02;16.77;;;12.95;;
25905;SDS011;13713;52.552;13.204;2022-10-16T00:58:27;15.13;;;11.68;;
25905;SDS011;13713;52.552;13.204;2022-10-16T01:00:53;16.70;;;12.70;;
25905;SDS011;13713;52.552;13.204;2022-10-16T01:03:31;18.15;;;12.50;;
25905;SDS011;13713;52.552;13.204;2022-10-16T01:14:45;14.98;;;12.07;;
25905;SDS011;13713;52.552;13.204;2022-10-16T01:17:18;15.52;;;12.32;;
25905;SDS011;13713;52.552;13.204;2022-10-16T01:25:25;14.50;;;11.48;;
25905;SDS011;13713;52.552;13.204;2022-10-16T01:28:11;14.65;;;11.63;;
25905;SDS011;13713;52.552;13.204;2022-10-16T01:30:39;16.55;;;12.20;;
25905;SDS011;13713;52.552;13.204;2022-10-16T01:33:10;15.20;;;11.73;;
25905;SDS011;13713;52.552;13.204;2022-10-16T01:35:51;15.73;;;11.45;;
25905;SDS011;13713;52.552;13.204;2022-10-16T01:41:10;16.00;;;12.57;;
25905;SDS011;13713;52.552;13.204;2022-10-16T01:43:40;15.80;;;11.30;;
25905;SDS011;13713;52.552;13.204;2022-10-16T01:46:15;15.02;;;12.05;;
25905;SDS011;13713;52.552;13.204;2022-10-16T01:48:45;14.32;;;11.40;;
25905;SDS011;13713;52.552;13.204;2022-10-16T01:51:13;14.20;;;11.07;;
25905;SDS011;13713;52.552;13.204;2022-10-16T01:53:41;15.07;;;11.50;;
25905;SDS011;13713;52.552;13.204;2022-10-16T01:58:42;14.50;;;11.52;;
25905;SDS011;13713;52.552;13.204;2022-10-16T02:01:11;13.77;;;10.50;;
25905;SDS011;13713;52.552;13.204;2022-10-16T02:03:40;13.52;;;10.52;;
25905;SDS011;13713;52.552;13.204;2022-10-16T02:06:08;13.05;;;10.52;;
25905;SDS011;13713;52.552;13.204;2022-10-16T02:08:34;15.07;;;11.50;;
25905;SDS011;13713;52.552;13.204;2022-10-16T02:11:00;13.70;;;10.93;;
25905;SDS011;13713;52.552;13.204;2022-10-16T02:13:31;14.95;;;10.90;;
25905;SDS011;13713;52.552;13.204;2022-10-16T02:16:00;13.95;;;11.73;;
25905;SDS011;13713;52.552;13.204;2022-10-16T02:18:26;15.43;;;11.63;;
25905;SDS011;13713;52.552;13.204;2022-10-16T02:23:45;13.40;;;10.93;;
25905;SDS011;13713;52.552;13.204;2022-10-16T02:26:31;14.52;;;10.82;;
25905;SDS011;13713;52.552;13.204;2022-10-16T02:29:06;14.70;;;10.95;;
25905;SDS011;13713;52.552;13.204;2022-10-16T02:31:35;13.93;;;10.68;;
25905;SDS011;13713;52.552;13.204;2022-10-16T02:34:06;12.70;;;10.27;;
25905;SDS011;13713;52.552;13.204;2022-10-16T02:36:32;12.60;;;9.93;;
25905;SDS011;13713;52.552;13.204;2022-10-16T02:39:00;13.30;;;10.63;;
25905;SDS011;13713;52.552;13.204;2022-10-16T02:41:28;14.90;;;10.88;;
25905;SDS011;13713;52.552;13.204;2022-10-16T02:43:55;13.32;;;10.38;;
25905;SDS011;13713;52.552;13.204;2022-10-16T02:46:20;13.05;;;10.30;;
25905;SDS011;13713;52.552;13.204;2022-10-16T02:48:46;13.65;;;10.45;;
25905;SDS011;13713;52.552;13.204;2022-10-16T02:51:12;14.98;;;10.88;;
25905;SDS011;13713;52.552;13.204;2022-10-16T02:53:38;13.88;;;10.95;;
25905;SDS011;13713;52.552;13.204;2022-10-16T02:56:03;12.60;;;9.90;;
25905;SDS011;13713;52.552;13.204;2022-10-16T02:58:29;13.65;;;10.57;;
25905;SDS011;13713;52.552;13.204;2022-10-16T03:00:55;12.55;;;10.57;;
25905;SDS011;13713;52.552;13.204;2022-10-16T03:03:20;13.07;;;10.63;;
25905;SDS011;13713;52.552;13.204;2022-10-16T03:05:46;12.85;;;10.38;;
25905;SDS011;13713;52.552;13.204;2022-10-16T03:08:12;13.25;;;10.20;;
25905;SDS011;13713;52.552;13.204;2022-10-16T03:10:38;12.43;;;10.02;;
25905;SDS011;13713;52.552;13.204;2022-10-16T03:13:04;11.85;;;9.70;;
25905;SDS011;13713;52.552;13.204;2022-10-16T03:15:29;13.60;;;10.18;;
25905;SDS011;13713;52.552;13.204;2022-10-16T03:17:58;11.73;;;9.98;;
25905;SDS011;13713;52.552;13.204;2022-10-16T03:20:24;12.43;;;10.02;;
25905;SDS011;13713;52.552;13.204;2022-10-16T03:22:51;12.13;;;9.55;;
25905;SDS011;13713;52.552;13.204;2022-10-16T03:25:16;11.27;;;9.38;;
25905;SDS011;13713;52.552;13.204;2022-10-16T03:27:42;13.35;;;10.25;;
25905;SDS011;13713;52.552;13.204;2022-10-16T03:30:08;13.13;;;10.35;;
25905;SDS011;13713;52.552;13.204;2022-10-16T03:32:34;13.18;;;10.40;;
25905;SDS011;13713;52.552;13.204;2022-10-16T03:34:59;13.10;;;10.48;;
25905;SDS011;13713;52.552;13.204;2022-10-16T03:37:25;13.00;;;9.90;;
25905;SDS011;13713;52.552;13.204;2022-10-16T03:39:51;13.93;;;10.90;;
25905;SDS011;13713;52.552;13.204;2022-10-16T03:42:17;12.88;;;9.88;;
25905;SDS011;13713;52.552;13.204;2022-10-16T03:44:42;11.65;;;9.63;;
25905;SDS011;13713;52.552;13.204;2022-10-16T03:47:08;11.95;;;9.32;;
25905;SDS011;13713;52.552;13.204;2022-10-16T03:49:33;11.40;;;9.43;;
25905;SDS011;13713;52.552;13.204;2022-10-16T03:51:59;13.38;;;10.00;;
25905;SDS011;13713;52.552;13.204;2022-10-16T03:54:25;12.70;;;9.93;;
25905;SDS011;13713;52.552;13.204;2022-10-16T03:56:50;13.50;;;10.10;;
25905;SDS011;13713;52.552;13.204;2022-10-16T03:59:17;11.48;;;9.02;;
25905;SDS011;13713;52.552;13.204;2022-10-16T04:01:42;11.73;;;9.52;;
25905;SDS011;13713;52.552;13.204;2022-10-16T04:04:08;12.15;;;8.90;;
25905;SDS011;13713;52.552;13.204;2022-10-16T04:06:34;12.25;;;9.38;;
25905;SDS011;13713;52.552;13.204;2022-10-16T04:09:00;11.85;;;9.95;;
25905;SDS011;13713;52.552;13.204;2022-10-16T04:11:25;12.52;;;9.52;;
25905;SDS011;13713;52.552;13.204;2022-10-16T04:13:51;11.75;;;9.85;;
25905;SDS011;13713;52.552;13.204;2022-10-16T04:16:16;10.98;;;9.00;;
25905;SDS011;13713;52.552;13.204;2022-10-16T04:18:42;12.80;;;9.88;;
25905;SDS011;13713;52.552;13.204;2022-10-16T04:21:07;11.32;;;9.27;;
25905;SDS011;13713;52.552;13.204;2022-10-16T04:23:33;11.25;;;9.00;;
25905;SDS011;13713;52.552;13.204;2022-10-16T04:25:59;11.23;;;9.05;;
25905;SDS011;13713;52.552;13.204;2022-10-16T04:28:25;11.77;;;8.38;;
25905;SDS011;13713;52.552;13.204;2022-10-16T04:30:51;11.52;;;9.45;;
25905;SDS011;13713;52.552;13.204;2022-10-16T04:33:17;11.27;;;8.88;;
25905;SDS011;13713;52.552;13.204;2022-10-16T04:35:43;11.95;;;9.05;;
25905;SDS011;13713;52.552;13.204;2022-10-16T04:38:08;11.90;;;9.70;;
25905;SDS011;13713;52.552;13.204;2022-10-16T04:40:34;10.77;;;8.50;;
25905;SDS011;13713;52.552;13.204;2022-10-16T04:43:02;11.73;;;9.82;;
25905;SDS011;13713;52.552;13.204;2022-10-16T04:45:28;12.20;;;8.95;;
25905;SDS011;13713;52.552;13.204;2022-10-16T04:47:56;12.68;;;9.30;;
25905;SDS011;13713;52.552;13.204;2022-10-16T04:50:25;10.95;;;9.23;;
25905;SDS011;13713;52.552;13.204;2022-10-16T04:53:04;11.65;;;9.23;;
25905;SDS011;13713;52.552;13.204;2022-10-16T04:55:30;11.38;;;9.02;;
25905;SDS011;13713;52.552;13.204;2022-10-16T04:57:56;11.57;;;9.52;;
25905;SDS011;13713;52.552;13.204;2022-10-16T05:00:21;12.20;;;9.02;;
25905;SDS011;13713;52.552;13.204;2022-10-16T05:02:47;11.50;;;8.85;;
25905;SDS011;13713;52.552;13.204;2022-10-16T05:05:14;10.23;;;8.65;;
25905;SDS011;13713;52.552;13.204;2022-10-16T05:07:40;10.68;;;9.10;;
25905;SDS011;13713;52.552;13.204;2022-10-16T05:10:06;11.02;;;9.13;;
25905;SDS011;13713;52.552;13.204;2022-10-16T05:12:32;10.13;;;8.57;;
25905;SDS011;13713;52.552;13.204;2022-10-16T05:14:59;11.48;;;8.88;;
25905;SDS011;13713;52.552;13.204;2022-10-16T05:17:25;10.07;;;8.57;;
25905;SDS011;13713;52.552;13.204;2022-10-16T05:19:51;11.05;;;9.00;;
25905;SDS011;13713;52.552;13.204;2022-10-16T05:22:16;11.43;;;8.90;;
25905;SDS011;13713;52.552;13.204;2022-10-16T05:24:42;10.27;;;8.15;;
25905;SDS011;13713;52.552;13.204;2022-10-16T05:27:08;10.35;;;8.52;;
25905;SDS011;13713;52.552;13.204;2022-10-16T05:29:34;11.18;;;8.80;;
25905;SDS011;13713;52.552;13.204;2022-10-16T05:32:00;10.20;;;7.88;;
25905;SDS011;13713;52.552;13.204;2022-10-16T05:34:25;10.25;;;8.10;;
25905;SDS011;13713;52.552;13.204;2022-10-16T05:36:51;10.63;;;8.68;;
25905;SDS011;13713;52.552;13.204;2022-10-16T05:39:17;10.20;;;8.48;;
25905;SDS011;13713;52.552;13.204;2022-10-16T05:41:42;9.80;;;8.05;;
25905;SDS011;13713;52.552;13.204;2022-10-16T05:44:08;9.73;;;7.95;;
25905;SDS011;13713;52.552;13.204;2022-10-16T05:46:34;11.38;;;9.07;;
25905;SDS011;13713;52.552;13.204;2022-10-16T05:49:00;9.57;;;7.47;;
25905;SDS011;13713;52.552;13.204;2022-10-16T05:51:25;10.85;;;8.40;;
25905;SDS011;13713;52.552;13.204;2022-10-16T05:53:51;11.05;;;9.02;;
25905;SDS011;13713;52.552;13.204;2022-10-16T05:56:17;10.75;;;8.82;;
25905;SDS011;13713;52.552;13.204;2022-10-16T05:58:43;10.90;;;8.35;;
25905;SDS011;13713;52.552;13.204;2022-10-16T06:01:12;11.57;;;9.00;;
25905;SDS011;13713;52.552;13.204;2022-10-16T06:03:40;10.57;;;8.15;;
25905;SDS011;13713;52.552;13.204;2022-10-16T06:06:13;9.90;;;8.20;;
25905;SDS011;13713;52.552;13.204;2022-10-16T06:08:41;10.15;;;8.32;;
25905;SDS011;13713;52.552;13.204;2022-10-16T06:11:08;9.88;;;8.00;;
25905;SDS011;13713;52.552;13.204;2022-10-16T06:13:36;9.15;;;7.45;;
25905;SDS011;13713;52.552;13.204;2022-10-16T06:16:02;9.43;;;7.68;;
25905;SDS011;13713;52.552;13.204;2022-10-16T06:18:28;9.68;;;8.00;;
25905;SDS011;13713;52.552;13.204;2022-10-16T06:20:55;10.48;;;8.32;;
25905;SDS011;13713;52.552;13.204;2022-10-16T06:23:21;10.20;;;8.30;;
25905;SDS011;13713;52.552;13.204;2022-10-16T06:25:46;10.70;;;8.52;;
25905;SDS011;13713;52.552;13.204;2022-10-16T06:28:13;8.93;;;7.32;;
25905;SDS011;13713;52.552;13.204;2022-10-16T06:30:39;10.35;;;8.25;;
25905;SDS011;13713;52.552;13.204;2022-10-16T06:33:05;9.52;;;8.00;;
25905;SDS011;13713;52.552;13.204;2022-10-16T06:35:31;9.77;;;7.78;;
25905;SDS011;13713;52.552;13.204;2022-10-16T06:37:57;10.35;;;8.48;;
25905;SDS011;13713;52.552;13.204;2022-10-16T06:40:23;9.43;;;7.60;;
25905;SDS011;13713;52.552;13.204;2022-10-16T06:42:48;9.63;;;7.78;;
25905;SDS011;13713;52.552;13.204;2022-10-16T06:45:14;9.73;;;7.55;;
25905;SDS011;13713;52.552;13.204;2022-10-16T06:47:39;9.55;;;7.97;;
25905;SDS011;13713;52.552;13.204;2022-10-16T06:50:05;9.35;;;7.53;;
25905;SDS011;13713;52.552;13.204;2022-10-16T06:52:34;9.38;;;7.63;;
25905;SDS011;13713;52.552;13.204;2022-10-16T06:54:59;10.18;;;7.65;;
25905;SDS011;13713;52.552;13.204;2022-10-16T06:57:25;10.65;;;8.07;;
25905;SDS011;13713;52.552;13.204;2022-10-16T06:59:51;9.30;;;7.78;;
25905;SDS011;13713;52.552;13.204;2022-10-16T07:02:17;9.25;;;7.20;;
25905;SDS011;13713;52.552;13.204;2022-10-16T07:04:42;9.90;;;7.60;;
25905;SDS011;13713;52.552;13.204;2022-10-16T07:07:08;9.15;;;7.70;;
25905;SDS011;13713;52.552;13.204;2022-10-16T07:09:34;8.95;;;7.43;;
25905;SDS011;13713;52.552;13.204;2022-10-16T07:11:59;9.68;;;7.70;;
25905;SDS011;13713;52.552;13.204;2022-10-16T07:14:25;9.15;;;6.97;;
25905;SDS011;13713;52.552;13.204;2022-10-16T07:16:51;9.15;;;7.70;;
25905;SDS011;13713;52.552;13.204;2022-10-16T07:19:16;8.43;;;7.40;;
25905;SDS011;13713;52.552;13.204;2022-10-16T07:21:43;9.07;;;7.38;;
25905;SDS011;13713;52.552;13.204;2022-10-16T07:24:11;9.35;;;7.40;;
25905;SDS011;13713;52.552;13.204;2022-10-16T07:26:39;9.65;;;7.15;;
25905;SDS011;13713;52.552;13.204;2022-10-16T07:29:15;8.40;;;7.00;;
25905;SDS011;13713;52.552;13.204;2022-10-16T07:31:43;8.73;;;7.03;;
25905;SDS011;13713;52.552;13.204;2022-10-16T07:34:09;10.15;;;7.80;;
25905;SDS011;13713;52.552;13.204;2022-10-16T07:36:36;8.00;;;6.65;;
25905;SDS011;13713;52.552;13.204;2022-10-16T07:39:02;8.55;;;7.05;;
25905;SDS011;13713;52.552;13.204;2022-10-16T07:41:28;8.45;;;6.68;;
25905;SDS011;13713;52.552;13.204;2022-10-16T07:43:54;9.02;;;7.13;;
25905;SDS011;13713;52.552;13.204;2022-10-16T07:46:21;8.10;;;6.53;;
25905;SDS011;13713;52.552;13.204;2022-10-16T07:48:47;8.10;;;6.70;;
25905;SDS011;13713;52.552;13.204;2022-10-16T07:51:14;8.73;;;7.20;;
25905;SDS011;13713;52.552;13.204;2022-10-16T07:53:41;7.80;;;6.60;;
25905;SDS011;13713;52.552;13.204;2022-10-16T07:56:07;8.77;;;6.72;;
25905;SDS011;13713;52.552;13.204;2022-10-16T07:58:34;9.25;;;6.90;;
25905;SDS011;13713;52.552;13.204;2022-10-16T08:01:20;7.88;;;6.70;;
25905;SDS011;13713;52.552;13.204;2022-10-16T08:03:46;8.10;;;6.53;;
25905;SDS011;13713;52.552;13.204;2022-10-16T08:06:14;8.25;;;6.90;;
25905;SDS011;13713;52.552;13.204;2022-10-16T08:08:40;8.52;;;6.72;;
25905;SDS011;13713;52.552;13.204;2022-10-16T08:11:05;8.60;;;6.97;;
25905;SDS011;13713;52.552;13.204;2022-10-16T08:13:31;8.80;;;6.57;;
25905;SDS011;13713;52.552;13.204;2022-10-16T08:15:57;8.77;;;6.72;;
25905;SDS011;13713;52.552;13.204;2022-10-16T08:18:23;7.60;;;6.10;;
25905;SDS011;13713;52.552;13.204;2022-10-16T08:20:54;6.78;;;5.78;;
25905;SDS011;13713;52.552;13.204;2022-10-16T08:23:21;9.15;;;6.75;;
25905;SDS011;13713;52.552;13.204;2022-10-16T08:25:47;8.23;;;6.45;;
25905;SDS011;13713;52.552;13.204;2022-10-16T08:28:13;9.05;;;6.72;;
25905;SDS011;13713;52.552;13.204;2022-10-16T08:30:38;8.65;;;7.07;;
25905;SDS011;13713;52.552;13.204;2022-10-16T08:33:05;7.97;;;6.40;;
25905;SDS011;13713;52.552;13.204;2022-10-16T08:35:31;9.50;;;7.07;;
25905;SDS011;13713;52.552;13.204;2022-10-16T08:37:57;8.45;;;6.80;;
25905;SDS011;13713;52.552;13.204;2022-10-16T08:40:24;8.63;;;6.75;;
25905;SDS011;13713;52.552;13.204;2022-10-16T08:48:47;7.50;;;6.13;;
25905;SDS011;13713;52.552;13.204;2022-10-16T08:51:37;8.60;;;6.70;;
25905;SDS011;13713;52.552;13.204;2022-10-16T08:54:02;8.07;;;6.35;;
25905;SDS011;13713;52.552;13.204;2022-10-16T08:56:30;7.70;;;5.80;;
25905;SDS011;13713;52.552;13.204;2022-10-16T08:58:57;7.00;;;5.80;;
25905;SDS011;13713;52.552;13.204;2022-10-16T09:01:24;7.55;;;6.50;;
25905;SDS011;13713;52.552;13.204;2022-10-16T09:07:12;7.68;;;5.97;;
25905;SDS011;13713;52.552;13.204;2022-10-16T09:17:52;7.82;;;6.38;;
25905;SDS011;13713;52.552;13.204;2022-10-16T09:23:44;8.60;;;6.30;;
25905;SDS011;13713;52.552;13.204;2022-10-16T09:26:11;8.05;;;6.28;;
25905;SDS011;13713;52.552;13.204;2022-10-16T09:28:39;7.63;;;6.10;;
25905;SDS011;13713;52.552;13.204;2022-10-16T09:31:05;7.90;;;6.18;;
25905;SDS011;13713;52.552;13.204;2022-10-16T09:33:35;7.68;;;5.88;;
25905;SDS011;13713;52.552;13.204;2022-10-16T09:36:03;7.65;;;6.15;;
25905;SDS011;13713;52.552;13.204;2022-10-16T09:38:31;7.65;;;5.93;;
25905;SDS011;13713;52.552;13.204;2022-10-16T09:40:59;7.68;;;5.97;;
25905;SDS011;13713;52.552;13.204;2022-10-16T09:43:27;7.45;;;6.30;;
25905;SDS011;13713;52.552;13.204;2022-10-16T09:46:22;6.57;;;5.50;;
25905;SDS011;13713;52.552;13.204;2022-10-16T09:48:51;6.95;;;5.88;;
25905;SDS011;13713;52.552;13.204;2022-10-16T09:51:22;7.00;;;5.63;;
25905;SDS011;13713;52.552;13.204;2022-10-16T09:53:48;7.53;;;5.85;;
25905;SDS011;13713;52.552;13.204;2022-10-16T09:56:26;6.97;;;5.75;;
25905;SDS011;13713;52.552;13.204;2022-10-16T09:58:58;6.82;;;5.60;;
25905;SDS011;13713;52.552;13.204;2022-10-16T10:01:30;7.05;;;6.07;;
25905;SDS011;13713;52.552;13.204;2022-10-16T10:04:02;6.88;;;5.85;;
25905;SDS011;13713;52.552;13.204;2022-10-16T10:06:30;6.45;;;5.35;;
25905;SDS011;13713;52.552;13.204;2022-10-16T10:09:00;6.55;;;5.43;;
25905;SDS011;13713;52.552;13.204;2022-10-16T10:14:17;6.95;;;5.88;;
25905;SDS011;13713;52.552;13.204;2022-10-16T10:16:47;7.15;;;5.82;;
25905;SDS011;13713;52.552;13.204;2022-10-16T10:19:14;7.03;;;6.05;;
25905;SDS011;13713;52.552;13.204;2022-10-16T10:21:44;6.53;;;5.40;;
25905;SDS011;13713;52.552;13.204;2022-10-16T10:24:10;6.70;;;5.50;;
25905;SDS011;13713;52.552;13.204;2022-10-16T10:26:51;6.93;;;5.75;;
25905;SDS011;13713;52.552;13.204;2022-10-16T10:29:38;6.35;;;5.40;;
25905;SDS011;13713;52.552;13.204;2022-10-16T10:32:26;7.75;;;6.03;;
25905;SDS011;13713;52.552;13.204;2022-10-16T10:35:14;8.07;;;5.95;;
25905;SDS011;13713;52.552;13.204;2022-10-16T10:40:27;6.47;;;5.22;;
25905;SDS011;13713;52.552;13.204;2022-10-16T10:46:14;6.00;;;5.22;;
25905;SDS011;13713;52.552;13.204;2022-10-16T10:57:21;6.15;;;4.88;;
25905;SDS011;13713;52.552;13.204;2022-10-16T11:00:03;5.93;;;5.07;;
25905;SDS011;13713;52.552;13.204;2022-10-16T11:02:40;7.57;;;6.07;;
25905;SDS011;13713;52.552;13.204;2022-10-16T11:05:24;6.25;;;5.65;;
25905;SDS011;13713;52.552;13.204;2022-10-16T11:10:45;6.65;;;5.40;;
25905;SDS011;13713;52.552;13.204;2022-10-16T11:13:35;6.13;;;5.05;;
25905;SDS011;13713;52.552;13.204;2022-10-16T11:16:11;6.07;;;5.28;;
25905;SDS011;13713;52.552;13.204;2022-10-16T11:18:49;5.93;;;4.90;;
25905;SDS011;13713;52.552;13.204;2022-10-16T11:21:21;6.75;;;5.00;;
25905;SDS011;13713;52.552;13.204;2022-10-16T11:26:41;6.03;;;4.97;;
25905;SDS011;13713;52.552;13.204;2022-10-16T11:29:19;6.13;;;5.20;;
25905;SDS011;13713;52.552;13.204;2022-10-16T11:34:34;5.70;;;4.93;;
25905;SDS011;13713;52.552;13.204;2022-10-16T11:37:11;5.78;;;4.95;;
25905;SDS011;13713;52.552;13.204;2022-10-16T11:39:41;5.65;;;4.90;;
25905;SDS011;13713;52.552;13.204;2022-10-16T11:44:38;5.88;;;5.25;;
25905;SDS011;13713;52.552;13.204;2022-10-16T11:47:21;6.22;;;4.80;;
25905;SDS011;13713;52.552;13.204;2022-10-16T11:55:36;6.22;;;5.25;;
25905;SDS011;13713;52.552;13.204;2022-10-16T11:58:48;6.45;;;5.05;;
25905;SDS011;13713;52.552;13.204;2022-10-16T12:01:17;6.45;;;5.20;;
25905;SDS011;13713;52.552;13.204;2022-10-16T12:07:07;6.38;;;5.00;;
25905;SDS011;13713;52.552;13.204;2022-10-16T12:09:37;6.07;;;5.15;;
25905;SDS011;13713;52.552;13.204;2022-10-16T12:12:04;7.75;;;5.18;;
25905;SDS011;13713;52.552;13.204;2022-10-16T12:14:48;5.57;;;4.82;;
25905;SDS011;13713;52.552;13.204;2022-10-16T12:17:26;5.75;;;5.00;;
25905;SDS011;13713;52.552;13.204;2022-10-16T12:22:40;5.78;;;4.80;;
25905;SDS011;13713;52.552;13.204;2022-10-16T12:25:31;5.50;;;4.70;;
25905;SDS011;13713;52.552;13.204;2022-10-16T12:28:15;6.22;;;5.10;;
25905;SDS011;13713;52.552;13.204;2022-10-16T12:30:54;5.72;;;4.97;;
25905;SDS011;13713;52.552;13.204;2022-10-16T12:33:26;7.03;;;5.30;;
25905;SDS011;13713;52.552;13.204;2022-10-16T12:36:00;6.07;;;4.45;;
25905;SDS011;13713;52.552;13.204;2022-10-16T12:41:24;5.68;;;4.85;;
25905;SDS011;13713;52.552;13.204;2022-10-16T12:43:50;6.63;;;4.55;;
25905;SDS011;13713;52.552;13.204;2022-10-16T12:48:42;5.60;;;4.80;;
25905;SDS011;13713;52.552;13.204;2022-10-16T12:51:21;5.93;;;4.97;;
25905;SDS011;13713;52.552;13.204;2022-10-16T12:53:57;5.78;;;4.95;;
25905;SDS011;13713;52.552;13.204;2022-10-16T12:56:24;6.28;;;4.68;;
25905;SDS011;13713;52.552;13.204;2022-10-16T13:02:03;4.93;;;4.43;;
25905;SDS011;13713;52.552;13.204;2022-10-16T13:07:50;5.25;;;4.63;;
25905;SDS011;13713;52.552;13.204;2022-10-16T13:18:26;5.38;;;4.68;;
25905;SDS011;13713;52.552;13.204;2022-10-16T13:21:07;5.72;;;4.53;;
25905;SDS011;13713;52.552;13.204;2022-10-16T13:26:31;6.13;;;4.65;;
25905;SDS011;13713;52.552;13.204;2022-10-16T13:29:09;5.55;;;4.45;;
25905;SDS011;13713;52.552;13.204;2022-10-16T13:31:36;5.90;;;4.35;;
25905;SDS011;13713;52.552;13.204;2022-10-16T13:34:03;6.25;;;4.85;;
25905;SDS011;13713;52.552;13.204;2022-10-16T13:36:34;6.28;;;4.78;;
25905;SDS011;13713;52.552;13.204;2022-10-16T13:39:13;5.18;;;4.47;;
25905;SDS011;13713;52.552;13.204;2022-10-16T13:41:45;5.40;;;4.50;;
25905;SDS011;13713;52.552;13.204;2022-10-16T13:44:23;4.97;;;4.40;;
25905;SDS011;13713;52.552;13.204;2022-10-16T13:46:57;4.68;;;4.05;;
25905;SDS011;13713;52.552;13.204;2022-10-16T13:49:24;5.22;;;4.00;;
25905;SDS011;13713;52.552;13.204;2022-10-16T13:51:56;5.75;;;4.68;;
25905;SDS011;13713;52.552;13.204;2022-10-16T13:54:24;5.95;;;5.00;;
25905;SDS011;13713;52.552;13.204;2022-10-16T13:56:51;4.72;;;3.97;;
25905;SDS011;13713;52.552;13.204;2022-10-16T13:59:27;5.78;;;4.65;;
25905;SDS011;13713;52.552;13.204;2022-10-16T14:01:58;5.07;;;4.50;;
25905;SDS011;13713;52.552;13.204;2022-10-16T14:04:27;5.15;;;3.95;;
25905;SDS011;13713;52.552;13.204;2022-10-16T14:06:56;5.50;;;4.40;;
25905;SDS011;13713;52.552;13.204;2022-10-16T14:09:26;5.18;;;4.20;;
25905;SDS011;13713;52.552;13.204;2022-10-16T14:11:58;5.18;;;3.80;;
25905;SDS011;13713;52.552;13.204;2022-10-16T14:14:59;6.35;;;4.13;;
25905;SDS011;13713;52.552;13.204;2022-10-16T14:17:20;4.15;;;3.75;;
25905;SDS011;13713;52.552;13.204;2022-10-16T14:19:49;4.80;;;4.25;;
25905;SDS011;13713;52.552;13.204;2022-10-16T14:22:36;5.07;;;4.32;;
25905;SDS011;13713;52.552;13.204;2022-10-16T14:27:44;5.55;;;4.60;;
25905;SDS011;13713;52.552;13.204;2022-10-16T14:30:20;4.80;;;4.30;;
25905;SDS011;13713;52.552;13.204;2022-10-16T14:32:53;4.35;;;3.90;;
25905;SDS011;13713;52.552;13.204;2022-10-16T14:40:24;4.80;;;4.15;;
25905;SDS011;13713;52.552;13.204;2022-10-16T14:42:52;4.78;;;3.80;;
25905;SDS011;13713;52.552;13.204;2022-10-16T14:45:19;4.82;;;4.03;;
25905;SDS011;13713;52.552;13.204;2022-10-16T14:47:52;4.88;;;4.10;;
25905;SDS011;13713;52.552;13.204;2022-10-16T14:50:22;5.18;;;4.38;;
25905;SDS011;13713;52.552;13.204;2022-10-16T14:52:47;5.03;;;4.13;;
25905;SDS011;13713;52.552;13.204;2022-10-16T14:55:13;4.63;;;3.95;;
25905;SDS011;13713;52.552;13.204;2022-10-16T14:57:39;5.10;;;4.20;;
25905;SDS011;13713;52.552;13.204;2022-10-16T15:00:16;4.47;;;3.78;;
25905;SDS011;13713;52.552;13.204;2022-10-16T15:02:44;5.82;;;3.97;;
25905;SDS011;13713;52.552;13.204;2022-10-16T15:05:20;5.22;;;4.13;;
25905;SDS011;13713;52.552;13.204;2022-10-16T15:07:48;4.93;;;4.38;;
25905;SDS011;13713;52.552;13.204;2022-10-16T15:10:15;5.05;;;4.28;;
25905;SDS011;13713;52.552;13.204;2022-10-16T15:12:42;6.22;;;4.00;;
25905;SDS011;13713;52.552;13.204;2022-10-16T15:17:56;4.80;;;4.05;;
25905;SDS011;13713;52.552;13.204;2022-10-16T15:20:25;4.18;;;3.70;;
25905;SDS011;13713;52.552;13.204;2022-10-16T15:23:02;4.70;;;4.10;;
25905;SDS011;13713;52.552;13.204;2022-10-16T15:25:42;5.28;;;3.95;;
25905;SDS011;13713;52.552;13.204;2022-10-16T15:28:10;4.28;;;3.88;;
25905;SDS011;13713;52.552;13.204;2022-10-16T15:30:37;4.43;;;3.83;;
25905;SDS011;13713;52.552;13.204;2022-10-16T15:33:03;5.15;;;4.47;;
25905;SDS011;13713;52.552;13.204;2022-10-16T15:35:29;4.53;;;3.72;;
25905;SDS011;13713;52.552;13.204;2022-10-16T15:37:55;4.60;;;4.00;;
25905;SDS011;13713;52.552;13.204;2022-10-16T15:40:21;4.10;;;3.60;;
25905;SDS011;13713;52.552;13.204;2022-10-16T15:42:48;5.25;;;4.18;;
25905;SDS011;13713;52.552;13.204;2022-10-16T15:45:14;5.30;;;3.95;;
25905;SDS011;13713;52.552;13.204;2022-10-16T15:47:41;4.85;;;3.67;;
25905;SDS011;13713;52.552;13.204;2022-10-16T15:50:08;5.40;;;4.10;;
25905;SDS011;13713;52.552;13.204;2022-10-16T15:52:36;4.90;;;4.05;;
25905;SDS011;13713;52.552;13.204;2022-10-16T15:55:03;4.85;;;4.22;;
25905;SDS011;13713;52.552;13.204;2022-10-16T15:57:30;4.60;;;3.97;;
25905;SDS011;13713;52.552;13.204;2022-10-16T15:59:56;4.85;;;4.13;;
25905;SDS011;13713;52.552;13.204;2022-10-16T16:02:21;3.75;;;3.30;;
25905;SDS011;13713;52.552;13.204;2022-10-16T16:04:47;3.85;;;3.45;;
25905;SDS011;13713;52.552;13.204;2022-10-16T16:07:12;4.22;;;3.83;;
25905;SDS011;13713;52.552;13.204;2022-10-16T16:09:38;4.50;;;3.88;;
25905;SDS011;13713;52.552;13.204;2022-10-16T16:12:04;4.55;;;3.90;;
25905;SDS011;13713;52.552;13.204;2022-10-16T16:14:29;5.35;;;3.58;;
25905;SDS011;13713;52.552;13.204;2022-10-16T16:16:55;4.00;;;3.60;;
25905;SDS011;13713;52.552;13.204;2022-10-16T16:19:21;4.38;;;3.80;;
25905;SDS011;13713;52.552;13.204;2022-10-16T16:21:47;4.82;;;3.75;;
25905;SDS011;13713;52.552;13.204;2022-10-16T16:24:13;5.18;;;4.28;;
25905;SDS011;13713;52.552;13.204;2022-10-16T16:26:39;4.25;;;3.85;;
25905;SDS011;13713;52.552;13.204;2022-10-16T16:29:12;4.65;;;3.90;;
25905;SDS011;13713;52.552;13.204;2022-10-16T16:31:38;4.72;;;4.15;;
25905;SDS011;13713;52.552;13.204;2022-10-16T16:34:05;4.55;;;3.80;;
25905;SDS011;13713;52.552;13.204;2022-10-16T16:36:31;4.60;;;3.47;;